Time;durP1;ratioP1;P1;durP2;ratioP2;P2;SDS_P1;SDS_P2;PMS_P1;PMS_P2;Temp;Humidity;BMP_temperature;BMP_pressure;BME280_temperature;BME280_humidity;BME280_pressure;Samples;Min_cycle;Max_cycle;Signal;HPM_P1;HPM_P2
2023/05/17 06:20:15;;;;;;;11.20;2.60;;;;;;;;;;10402155;23;20046;-83
2023/05/17 06:25:16;;;;;;;10.18;2.75;;;;;;;;;;10366643;28;20038;-83
2023/05/17 06:30:17;;;;;;;;;;;;;;;;;;10365589;28;20404;-82
2023/05/17 06:35:18;;;;;;;12.30;3.03;;;;;;;;;;10366017;28;19956;-83
2023/05/17 06:40:19;;;;;;;6.78;2.63;;;;;;;;;;10372900;28;20037;-82
2023/05/17 06:45:20;;;;;;;;;;;;;;;;;;10406366;28;20062;-82
2023/05/17 06:50:21;;;;;;;;;;;;;;;;;;10367378;28;19910;-83
2023/05/17 06:55:22;;;;;;;10.23;3.15;;;;;;;;;;10393322;28;19897;-81
2023/05/17 07:00:23;;;;;;;;;;;;;;;;;;10413878;28;20192;-81
2023/05/17 07:05:24;;;;;;;8.55;2.90;;;;;;;;;;10362243;28;19929;-83
2023/05/17 07:10:25;;;;;;;7.25;2.03;;;;;;;;;;10367331;28;20366;-82
2023/05/17 07:15:26;;;;;;;22.20;13.43;;;;;;;;;;10368813;28;20058;-83
2023/05/17 07:20:27;;;;;;;6.65;2.40;;;;;;;;;;10370531;28;20101;-82
2023/05/17 07:25:28;;;;;;;9.82;2.08;;;;;;;;;;10371316;28;20069;-86
2023/05/17 07:30:29;;;;;;;6.07;2.13;;;;;;;;;;10371277;28;20488;-83
2023/05/17 07:35:31;;;;;;;5.25;2.20;;;;;;;;;;10373548;28;20098;-82
2023/05/17 07:40:32;;;;;;;4.93;2.00;;;;;;;;;;10373237;28;20049;-83
2023/05/17 07:45:33;;;;;;;6.85;2.00;;;;;;;;;;10377077;28;20098;-82
2023/05/17 07:50:34;;;;;;;8.10;1.95;;;;;;;;;;10381073;28;20559;-82
2023/05/17 07:55:35;;;;;;;8.88;3.88;;;;;;;;;;10381111;28;20049;-82
2023/05/17 08:00:36;;;;;;;6.00;2.03;;;;;;;;;;10369753;28;20045;-84
2023/05/17 08:05:37;;;;;;;6.90;1.85;;;;;;;;;;10348035;28;20054;-82
2023/05/17 08:10:38;;;;;;;10.02;4.07;;;;;;;;;;10362359;28;20085;-82
2023/05/17 08:15:39;;;;;;;5.85;2.08;;;;;;;;;;10330421;28;20034;-82
2023/05/17 08:20:40;;;;;;;10.25;3.30;;;;;;;;;;10330857;28;20512;-83
2023/05/17 08:25:41;;;;;;;9.32;5.10;;;;;;;;;;10331402;28;20404;-82
2023/05/17 08:30:42;;;;;;;6.85;3.63;;;;;;;;;;10363139;28;20065;-83
2023/05/17 08:35:43;;;;;;;6.97;3.40;;;;;;;;;;10363227;28;20476;-83
2023/05/17 08:40:52;;;;;;;7.85;2.00;;;;;;;;;;10363885;28;20134;-83
2023/05/17 08:45:56;;;;;;;6.85;2.88;;;;;;;;;;10365210;28;20037;-83
2023/05/17 08:50:57;;;;;;;7.07;3.00;;;;;;;;;;10366594;28;20033;-84
2023/05/17 08:55:59;;;;;;;7.22;2.85;;;;;;;;;;10367591;28;20053;-83
2023/05/17 09:01:01;;;;;;;7.78;2.30;;;;;;;;;;10372021;28;20068;-83
2023/05/17 09:06:02;;;;;;;8.88;2.90;;;;;;;;;;10370134;28;20034;-83
2023/05/17 09:11:03;;;;;;;7.18;1.95;;;;;;;;;;10332140;28;20043;-84
2023/05/17 09:16:12;;;;;;;5.22;1.40;;;;;;;;;;10330537;28;20046;-82
2023/05/17 09:21:13;;;;;;;4.95;2.05;;;;;;;;;;10334272;28;20073;-82
2023/05/17 09:26:14;;;;;;;6.78;2.65;;;;;;;;;;10365097;28;20027;-83
2023/05/17 09:31:16;;;;;;;5.20;1.90;;;;;;;;;;10362517;28;20053;-83
2023/05/17 09:36:21;;;;;;;4.82;1.60;;;;;;;;;;10362234;28;20042;-85
2023/05/17 09:41:25;;;;;;;5.28;2.30;;;;;;;;;;10364035;28;20038;-85
2023/05/17 09:46:26;;;;;;;6.07;2.60;;;;;;;;;;10329220;28;20041;-84
2023/05/17 09:51:39;;;;;;;6.03;1.90;;;;;;;;;;10363502;28;20470;-83
2023/05/17 09:56:40;;;;;;;4.15;1.50;;;;;;;;;;10366803;28;20060;-81
2023/05/17 10:01:43;;;;;;;7.38;1.83;;;;;;;;;;10365400;28;20123;-80
2023/05/17 10:06:44;;;;;;;3.55;1.73;;;;;;;;;;10360773;28;20054;-79
2023/05/17 10:11:46;;;;;;;5.65;2.17;;;;;;;;;;10352758;28;20034;-79
2023/05/17 10:16:48;;;;;;;7.10;2.28;;;;;;;;;;10366557;28;20039;-81
2023/05/17 10:21:50;;;;;;;8.27;2.13;;;;;;;;;;10361569;28;20086;-81
2023/05/17 10:26:51;;;;;;;7.07;3.22;;;;;;;;;;10359602;28;20038;-80
2023/05/17 10:31:52;;;;;;;7.72;2.97;;;;;;;;;;10343199;28;20034;-79
2023/05/17 10:36:54;;;;;;;7.93;5.30;;;;;;;;;;10330677;28;20142;-79
2023/05/17 10:41:56;;;;;;;6.03;2.25;;;;;;;;;;10332359;28;20031;-80
2023/05/17 10:46:59;;;;;;;6.50;2.00;;;;;;;;;;10336250;28;20058;-80
2023/05/17 10:52:11;;;;;;;7.07;1.80;;;;;;;;;;10364699;28;20090;-79
2023/05/17 10:57:20;;;;;;;5.78;1.73;;;;;;;;;;10334203;28;20424;-80
2023/05/17 11:02:23;;;;;;;8.65;2.60;;;;;;;;;;10367092;28;20097;-80
2023/05/17 11:07:26;;;;;;;5.38;1.60;;;;;;;;;;10367987;28;20050;-81
2023/05/17 11:12:29;;;;;;;4.38;1.58;;;;;;;;;;10371484;28;20041;-79
2023/05/17 11:17:42;;;;;;;4.20;1.42;;;;;;;;;;10378623;28;20064;-79
2023/05/17 11:22:49;;;;;;;4.93;1.63;;;;;;;;;;10381907;28;20034;-83
2023/05/17 11:27:51;;;;;;;6.60;1.60;;;;;;;;;;10352005;28;20045;-82
2023/05/17 11:32:53;;;;;;;5.88;1.77;;;;;;;;;;10365141;28;20042;-83
2023/05/17 11:38:13;;;;;;;5.55;1.58;;;;;;;;;;10336074;28;20041;-80
2023/05/17 11:43:15;;;;;;;4.15;1.70;;;;;;;;;;10351697;28;20106;-80
2023/05/17 11:48:17;;;;;;;8.25;2.90;;;;;;;;;;10367701;28;20038;-80
2023/05/17 11:53:19;;;;;;;5.57;2.60;;;;;;;;;;10367974;28;20121;-82
2023/05/17 11:58:23;;;;;;;5.18;2.30;;;;;;;;;;10370217;28;20106;-80
2023/05/17 12:03:25;;;;;;;5.53;2.70;;;;;;;;;;10367768;28;20098;-80
2023/05/17 12:08:26;;;;;;;5.55;2.60;;;;;;;;;;10350962;28;20044;-81
2023/05/17 12:13:29;;;;;;;6.80;2.78;;;;;;;;;;10338959;28;20521;-80
2023/05/17 12:18:37;;;;;;;6.32;2.20;;;;;;;;;;10366466;28;20071;-83
2023/05/17 12:23:45;;;;;;;6.60;2.08;;;;;;;;;;10337244;28;20085;-80
2023/05/17 12:28:53;;;;;;;4.32;1.63;;;;;;;;;;10362621;28;20489;-81
2023/05/17 12:33:54;;;;;;;3.10;1.50;;;;;;;;;;10328728;28;20030;-82
2023/05/17 12:38:55;;;;;;;6.05;3.15;;;;;;;;;;10374359;28;20106;-81
2023/05/17 12:43:57;;;;;;;7.63;2.08;;;;;;;;;;10382135;28;20039;-80
2023/05/17 12:49:01;;;;;;;5.95;2.60;;;;;;;;;;10330720;28;20477;-80
2023/05/17 12:54:02;;;;;;;4.15;1.60;;;;;;;;;;10364860;28;20132;-85
2023/05/17 12:59:16;;;;;;;4.47;1.60;;;;;;;;;;10331795;28;20140;-83
2023/05/17 13:04:18;;;;;;;5.80;2.47;;;;;;;;;;10364493;28;20382;-82
2023/05/17 13:09:24;;;;;;;6.70;2.22;;;;;;;;;;10363838;28;20071;-82
2023/05/17 13:14:41;;;;;;;5.50;1.83;;;;;;;;;;10347392;28;20040;-81
2023/05/17 13:19:42;;;;;;;5.35;1.75;;;;;;;;;;10359410;28;20137;-79
2023/05/17 13:24:44;;;;;;;7.07;2.28;;;;;;;;;;10355823;28;20034;-79
2023/05/17 13:29:45;;;;;;;7.00;1.85;;;;;;;;;;10355867;28;20034;-79
2023/05/17 13:34:46;;;;;;;4.32;1.60;;;;;;;;;;10341742;28;20349;-79
2023/05/17 13:39:48;;;;;;;6.07;1.90;;;;;;;;;;10360217;28;20216;-81
2023/05/17 13:44:49;;;;;;;7.30;1.70;;;;;;;;;;10347230;28;20062;-80
2023/05/17 13:49:50;;;;;;;4.68;1.52;;;;;;;;;;10338807;28;20035;-81
2023/05/17 13:54:51;;;;;;;5.03;1.58;;;;;;;;;;10368257;28;20057;-80
2023/05/17 13:59:52;;;;;;;5.38;2.10;;;;;;;;;;10358830;28;20512;-82
2023/05/17 14:04:54;;;;;;;7.60;2.20;;;;;;;;;;10362561;28;20117;-82
2023/05/17 14:09:55;;;;;;;7.20;2.55;;;;;;;;;;10365305;28;20037;-80
2023/05/17 14:14:56;;;;;;;6.20;2.20;;;;;;;;;;10366494;28;20125;-84
2023/05/17 14:19:57;;;;;;;4.90;1.80;;;;;;;;;;10372081;28;20094;-82
2023/05/17 14:24:58;;;;;;;6.85;2.10;;;;;;;;;;10356842;28;20030;-81
2023/05/17 14:30:00;;;;;;;4.88;1.48;;;;;;;;;;10367826;28;20405;-80
2023/05/17 14:35:01;;;;;;;8.73;1.90;;;;;;;;;;10369576;28;20034;-78
2023/05/17 14:40:03;;;;;;;8.30;2.10;;;;;;;;;;10372187;28;20062;-79
2023/05/17 14:45:04;;;;;;;5.80;2.25;;;;;;;;;;10378103;28;20042;-84
2023/05/17 14:50:05;;;;;;;7.18;2.05;;;;;;;;;;10370439;28;20110;-83
2023/05/17 14:55:07;;;;;;;5.40;2.28;;;;;;;;;;10368776;28;20030;-87
2023/05/17 15:00:10;;;;;;;6.80;2.30;;;;;;;;;;10368588;28;20030;-82
2023/05/17 15:05:11;;;;;;;13.50;3.97;;;;;;;;;;10370922;28;20351;-83
2023/05/17 15:10:12;;;;;;;6.22;2.42;;;;;;;;;;10357882;28;20429;-83
2023/05/17 15:15:14;;;;;;;8.13;2.30;;;;;;;;;;10374829;28;20038;-81
2023/05/17 15:20:15;;;;;;;8.73;2.30;;;;;;;;;;10359004;28;20042;-83
2023/05/17 15:25:16;;;;;;;8.70;2.83;;;;;;;;;;10369278;28;20381;-83
2023/05/17 15:30:19;;;;;;;5.07;2.13;;;;;;;;;;10368353;28;20038;-84
2023/05/17 15:35:20;;;;;;;8.80;3.15;;;;;;;;;;10366722;28;20049;-84
2023/05/17 15:40:23;;;;;;;10.50;2.92;;;;;;;;;;10366682;28;20082;-83
2023/05/17 15:45:24;;;;;;;22.05;14.00;;;;;;;;;;10349778;28;20022;-83
2023/05/17 15:50:25;;;;;;;9.02;2.75;;;;;;;;;;10364708;28;20400;-83
2023/05/17 15:55:27;;;;;;;4.70;2.25;;;;;;;;;;10365137;28;20061;-82
2023/05/17 16:00:28;;;;;;;5.68;1.80;;;;;;;;;;10363395;28;20042;-83
2023/05/17 16:05:32;;;;;;;6.45;2.35;;;;;;;;;;10367954;28;20060;-83
2023/05/17 16:10:35;;;;;;;7.57;2.20;;;;;;;;;;10365802;28;20133;-83
2023/05/17 16:15:36;;;;;;;7.60;2.95;;;;;;;;;;10371561;28;20405;-83
2023/05/17 16:20:37;;;;;;;5.13;1.95;;;;;;;;;;10384272;28;20046;-83
2023/05/17 16:25:38;;;;;;;5.32;2.28;;;;;;;;;;10349130;28;20034;-84
2023/05/17 16:30:39;;;;;;;6.25;2.65;;;;;;;;;;10331889;28;20030;-85
2023/05/17 16:35:40;;;;;;;7.53;2.08;;;;;;;;;;10328815;28;20421;-84
2023/05/17 16:40:42;;;;;;;4.25;2.15;;;;;;;;;;10349061;28;20125;-85
2023/05/17 16:45:43;;;;;;;5.40;2.50;;;;;;;;;;10364372;28;20119;-84
2023/05/17 16:50:44;;;;;;;4.65;2.00;;;;;;;;;;10365408;28;20549;-84
2023/05/17 16:55:45;;;;;;;5.00;1.85;;;;;;;;;;10346628;28;20030;-85
2023/05/17 17:00:47;;;;;;;8.23;2.20;;;;;;;;;;10330469;28;20065;-85
2023/05/17 17:05:48;;;;;;;7.70;2.50;;;;;;;;;;10365884;28;20034;-85
2023/05/17 17:10:49;;;;;;;6.03;2.20;;;;;;;;;;10326472;28;20042;-84
2023/05/17 17:15:51;;;;;;;6.35;2.15;;;;;;;;;;10371370;28;20049;-85
2023/05/17 17:20:52;;;;;;;5.35;1.90;;;;;;;;;;10350962;28;20058;-85
2023/05/17 17:25:53;;;;;;;5.97;1.90;;;;;;;;;;10340480;28;20034;-85
2023/05/17 17:30:55;;;;;;;5.00;1.70;;;;;;;;;;10358713;28;20098;-84
2023/05/17 17:35:56;;;;;;;5.60;1.75;;;;;;;;;;10334957;28;20026;-86
2023/05/17 17:40:57;;;;;;;5.78;2.30;;;;;;;;;;10353434;28;20070;-84
2023/05/17 17:45:58;;;;;;;7.82;2.25;;;;;;;;;;10335060;28;20062;-85
2023/05/17 17:50:59;;;;;;;6.82;1.95;;;;;;;;;;10365401;28;20496;-84
2023/05/17 17:56:00;;;;;;;5.45;1.92;;;;;;;;;;10367554;28;20038;-85
2023/05/17 18:01:01;;;;;;;3.58;1.75;;;;;;;;;;10369315;28;20061;-86
2023/05/17 18:06:03;;;;;;;6.00;2.20;;;;;;;;;;10367675;28;20030;-84
2023/05/17 18:11:04;;;;;;;4.68;1.67;;;;;;;;;;10350801;28;20056;-85
2023/05/17 18:16:06;;;;;;;10.55;2.97;;;;;;;;;;10336051;28;20129;-85
2023/05/17 18:27:01;;;;;;;3.67;1.80;;;;;;;;;;10183074;29;20044;-89
2023/05/17 18:32:22;;;;;;;3.83;1.53;;;;;;;;;;10175674;29;20488;-89
2023/05/17 18:37:36;;;;;;;;;;;;;;;;;;10174953;29;20096;-89
2023/05/17 18:42:52;;;;;;;5.18;1.73;;;;;;;;;;10175754;29;19915;-89
2023/05/17 18:48:10;;;;;;;6.18;1.95;;;;;;;;;;10175033;29;20040;-87
2023/05/17 18:53:46;;;;;;;6.32;2.40;;;;;;;;;;10120025;29;20487;-89
2023/05/17 19:10:09;;;;;;;3.28;1.40;;;;;;;;;;10220417;29;20034;-86
